createdAt,value
2023-02-19T00:01:28.958Z,0.00
2023-02-19T00:02:28.964Z,0.00
2023-02-19T00:03:28.971Z,0.00
2023-02-19T00:04:28.928Z,0.00
2023-02-19T00:05:28.927Z,0.00
2023-02-19T00:06:28.950Z,0.00
2023-02-19T00:07:28.916Z,0.00
2023-02-19T00:08:28.919Z,0.00
2023-02-19T00:09:28.904Z,0.00
2023-02-19T00:10:28.909Z,0.00
2023-02-19T00:11:28.932Z,0.00
2023-02-19T00:12:28.938Z,0.00
2023-02-19T00:13:28.892Z,0.00
2023-02-19T00:14:28.887Z,0.00
2023-02-19T00:15:28.965Z,0.00
2023-02-19T00:16:28.895Z,0.00
2023-02-19T00:17:28.901Z,0.00
2023-02-19T00:18:28.908Z,0.00
2023-02-19T00:19:28.901Z,0.00
2023-02-19T00:20:28.909Z,0.00
2023-02-19T00:21:28.900Z,0.00
2023-02-19T00:22:28.893Z,0.00
2023-02-19T00:23:28.871Z,0.00
2023-02-19T00:24:28.882Z,0.00
2023-02-19T00:25:28.864Z,0.00
2023-02-19T00:26:28.859Z,0.00
2023-02-19T00:27:28.865Z,0.00
2023-02-19T00:28:28.907Z,0.00
2023-02-19T00:29:28.873Z,0.00
2023-02-19T00:30:28.929Z,0.00
2023-02-19T00:31:31.472Z,0.00
2023-02-19T00:32:28.891Z,0.00
2023-02-19T00:33:28.870Z,0.00
2023-02-19T00:34:28.882Z,0.00
2023-02-19T00:35:28.922Z,0.00
2023-02-19T00:36:28.858Z,0.00
2023-02-19T00:37:28.836Z,0.00
2023-02-19T00:38:28.866Z,0.00
2023-02-19T00:39:28.868Z,0.00
2023-02-19T00:40:28.862Z,0.00
2023-02-19T00:41:28.857Z,0.00
2023-02-19T00:42:28.861Z,0.00
2023-02-19T00:43:28.847Z,0.00
2023-02-19T00:44:28.824Z,0.00
2023-02-19T00:45:28.913Z,0.00
2023-02-19T00:46:28.904Z,0.00
2023-02-19T00:47:28.833Z,0.00
2023-02-19T00:48:28.823Z,0.00
2023-02-19T00:49:28.897Z,0.00
2023-02-19T00:50:28.829Z,0.00
2023-02-19T00:51:28.842Z,0.00
2023-02-19T00:52:28.835Z,0.00
2023-02-19T00:53:28.827Z,0.00
2023-02-19T00:54:28.828Z,0.00
2023-02-19T00:55:28.818Z,0.00
2023-02-19T00:56:28.875Z,0.00
2023-02-19T00:57:28.815Z,0.00
2023-02-19T00:58:28.817Z,0.00
2023-02-19T00:59:28.803Z,0.00
2023-02-19T01:00:28.800Z,0.00
2023-02-19T01:01:28.836Z,0.00
2023-02-19T01:02:28.896Z,0.00
2023-02-19T01:03:28.821Z,0.00
2023-02-19T01:04:28.894Z,0.00
2023-02-19T01:05:28.781Z,0.00
2023-02-19T01:06:28.824Z,0.00
2023-02-19T01:07:28.795Z,0.00
2023-02-19T01:08:28.769Z,0.00
2023-02-19T01:09:28.764Z,0.00
2023-02-19T01:10:28.783Z,0.00
2023-02-19T01:11:28.765Z,0.00
2023-02-19T01:12:28.784Z,0.00
2023-02-19T01:13:28.768Z,0.00
2023-02-19T01:14:28.793Z,0.00
2023-02-19T01:15:28.763Z,0.00
2023-02-19T01:16:28.844Z,0.00
2023-02-19T01:17:28.781Z,0.00
2023-02-19T01:18:28.775Z,0.00
2023-02-19T01:19:28.752Z,0.00
2023-02-19T01:20:28.738Z,0.00
2023-02-19T01:21:28.824Z,0.00
2023-02-19T01:22:28.749Z,0.00
2023-02-19T01:23:28.757Z,0.00
2023-02-19T01:24:28.764Z,0.00
2023-02-19T01:25:28.743Z,0.00
2023-02-19T01:26:28.748Z,0.00
2023-02-19T01:27:28.709Z,0.00
2023-02-19T01:28:28.760Z,0.00
2023-02-19T01:29:28.757Z,0.00
2023-02-19T01:30:28.737Z,0.00
2023-02-19T01:31:28.844Z,0.00
2023-02-19T01:32:28.722Z,0.00
2023-02-19T01:33:28.734Z,0.00
2023-02-19T01:34:28.722Z,0.00
2023-02-19T01:35:28.710Z,0.00
2023-02-19T01:36:28.756Z,0.00
2023-02-19T01:37:28.722Z,0.00
2023-02-19T01:38:28.706Z,0.00
2023-02-19T01:39:28.729Z,0.00
2023-02-19T01:40:28.702Z,0.00
2023-02-19T01:41:28.684Z,0.00
2023-02-19T01:42:28.681Z,0.00
2023-02-19T01:43:28.700Z,0.00
2023-02-19T01:44:28.691Z,0.00
2023-02-19T01:45:28.705Z,0.00
2023-02-19T01:46:28.753Z,0.00
2023-02-19T01:47:28.701Z,0.00
2023-02-19T01:48:28.714Z,0.00
2023-02-19T01:49:28.669Z,0.00
2023-02-19T01:50:28.672Z,0.00
2023-02-19T01:51:28.672Z,0.00
2023-02-19T01:52:28.652Z,0.00
2023-02-19T01:53:28.679Z,0.00
2023-02-19T01:54:28.674Z,0.00
2023-02-19T01:55:28.669Z,0.00
2023-02-19T01:56:28.691Z,0.00
2023-02-19T01:57:28.665Z,0.00
2023-02-19T01:58:28.679Z,0.00
2023-02-19T01:59:28.687Z,0.00
2023-02-19T02:00:28.731Z,0.00
2023-02-19T02:01:28.642Z,0.00
2023-02-19T02:02:28.705Z,0.00
2023-02-19T02:03:28.645Z,0.00
2023-02-19T02:04:28.631Z,0.00
2023-02-19T02:05:28.623Z,0.00
2023-02-19T02:06:28.643Z,0.00
2023-02-19T02:07:28.643Z,0.00
2023-02-19T02:08:28.648Z,0.00
2023-02-19T02:09:28.644Z,0.00
2023-02-19T02:10:28.624Z,0.00
2023-02-19T02:11:28.605Z,0.00
2023-02-19T02:12:28.662Z,0.00
2023-02-19T02:13:28.623Z,0.00
2023-02-19T02:14:28.605Z,0.00
2023-02-19T02:15:28.615Z,0.00
2023-02-19T02:16:28.645Z,0.00
2023-02-19T02:17:28.632Z,0.00
2023-02-19T02:18:28.614Z,0.00
2023-02-19T02:19:28.618Z,0.00
2023-02-19T02:20:28.622Z,0.00
2023-02-19T02:21:28.596Z,0.00
2023-02-19T02:22:28.611Z,0.00
2023-02-19T02:23:28.643Z,0.00
2023-02-19T02:24:28.577Z,0.00
2023-02-19T02:25:28.605Z,0.00
2023-02-19T02:26:28.604Z,0.00
2023-02-19T02:27:28.601Z,0.00
2023-02-19T02:28:28.602Z,0.00
2023-02-19T02:29:28.595Z,0.00
2023-02-19T02:30:28.601Z,0.00
2023-02-19T02:31:28.664Z,0.00
2023-02-19T02:32:28.576Z,0.00
2023-02-19T02:33:28.601Z,0.00
2023-02-19T02:34:28.564Z,0.00
2023-02-19T02:35:28.564Z,0.00
2023-02-19T02:36:28.569Z,0.00
2023-02-19T02:37:28.558Z,0.00
2023-02-19T02:38:28.549Z,0.00
2023-02-19T02:39:28.564Z,0.00
2023-02-19T02:40:28.561Z,0.00
2023-02-19T02:41:28.551Z,0.00
2023-02-19T02:44:00.629Z,0.00
2023-02-19T02:45:00.635Z,0.00
2023-02-19T02:46:00.707Z,0.00
2023-02-19T02:47:00.634Z,0.00
2023-02-19T02:48:00.609Z,0.00
2023-02-19T02:49:00.614Z,0.00
2023-02-19T02:50:00.603Z,0.00
2023-02-19T02:51:00.609Z,0.00
2023-02-19T02:52:00.639Z,0.00
2023-02-19T02:53:00.609Z,0.00
2023-02-19T02:54:00.617Z,0.00
2023-02-19T02:55:02.619Z,0.00
2023-02-19T02:56:00.598Z,0.00
2023-02-19T02:57:00.599Z,0.00
2023-02-19T02:58:00.574Z,0.00
2023-02-19T02:59:00.610Z,0.00
2023-02-19T03:00:00.574Z,0.00
2023-02-19T03:01:00.574Z,0.00
2023-02-19T03:02:00.602Z,0.00
2023-02-19T03:03:00.572Z,0.00
2023-02-19T03:04:00.564Z,0.00
2023-02-19T03:05:00.580Z,0.00
2023-02-19T03:06:00.572Z,0.00
2023-02-19T03:07:00.554Z,0.00
2023-02-19T03:08:00.548Z,0.00
2023-02-19T03:09:00.547Z,0.00
2023-02-19T03:10:00.587Z,0.00
2023-02-19T03:11:00.546Z,0.00
2023-02-19T03:12:00.544Z,0.00
2023-02-19T03:13:00.553Z,0.00
2023-02-19T03:14:00.542Z,0.00
2023-02-19T03:15:00.538Z,0.00
2023-02-19T03:16:00.552Z,0.00
2023-02-19T03:17:00.551Z,0.00
2023-02-19T03:18:00.552Z,0.00
2023-02-19T03:19:00.550Z,0.00
2023-02-19T03:20:08.283Z,0.00
2023-02-19T03:21:00.504Z,0.00
2023-02-19T03:22:00.532Z,0.00
2023-02-19T03:23:00.499Z,0.00
2023-02-19T03:24:00.507Z,0.00
2023-02-19T03:25:00.496Z,0.00
2023-02-19T03:26:00.512Z,0.00
2023-02-19T03:27:00.511Z,0.00
2023-02-19T03:28:00.506Z,0.00
2023-02-19T03:29:00.481Z,0.00
2023-02-19T03:30:00.635Z,0.00
2023-02-19T03:31:00.575Z,0.00
2023-02-19T03:32:00.702Z,0.00
2023-02-19T03:33:00.492Z,0.00
2023-02-19T03:34:00.484Z,0.00
2023-02-19T03:35:00.462Z,0.00
2023-02-19T03:36:00.475Z,0.00
2023-02-19T03:37:00.459Z,0.00
2023-02-19T03:38:00.471Z,0.00
2023-02-19T03:39:00.471Z,0.00
2023-02-19T03:40:00.482Z,0.00
2023-02-19T03:41:00.461Z,0.00
2023-02-19T03:42:00.497Z,0.00
2023-02-19T03:43:00.451Z,0.00
2023-02-19T03:44:00.447Z,0.00
2023-02-19T03:45:00.453Z,0.00
2023-02-19T03:46:00.522Z,0.00
2023-02-19T03:47:00.443Z,0.00
2023-02-19T03:48:00.442Z,0.00
2023-02-19T03:49:00.441Z,0.00
2023-02-19T03:50:00.424Z,0.00
2023-02-19T03:51:00.458Z,0.00
2023-02-19T03:52:00.415Z,0.00
2023-02-19T03:53:00.438Z,0.00
2023-02-19T03:54:00.425Z,0.00
2023-02-19T03:55:00.442Z,0.00
2023-02-19T03:56:00.410Z,0.00
2023-02-19T03:57:00.406Z,0.00
2023-02-19T03:58:00.422Z,0.00
2023-02-19T03:59:00.404Z,0.00
2023-02-19T04:00:00.420Z,0.00
2023-02-19T04:01:00.417Z,0.00
2023-02-19T04:02:00.417Z,0.00
2023-02-19T04:03:00.388Z,0.00
2023-02-19T04:04:00.416Z,0.00
2023-02-19T04:05:00.503Z,0.00
2023-02-19T04:06:00.383Z,0.00
2023-02-19T04:07:00.389Z,0.00
2023-02-19T04:08:00.428Z,0.00
2023-02-19T04:09:00.380Z,0.00
2023-02-19T04:10:00.382Z,0.00
2023-02-19T04:11:00.367Z,0.00
2023-02-19T04:12:00.383Z,0.00
2023-02-19T04:13:00.419Z,0.00
2023-02-19T04:14:00.384Z,0.00
2023-02-19T04:15:00.387Z,0.00
2023-02-19T04:16:00.370Z,0.00
2023-02-19T04:17:00.388Z,0.00
2023-02-19T04:18:00.364Z,0.00
2023-02-19T04:19:00.381Z,0.00
2023-02-19T04:20:00.371Z,0.00
2023-02-19T04:21:00.358Z,0.00
2023-02-19T04:22:00.385Z,0.00
2023-02-19T04:23:00.348Z,0.00
2023-02-19T04:24:00.347Z,0.00
2023-02-19T04:25:00.330Z,0.00
2023-02-19T04:26:00.358Z,0.00
2023-02-19T04:27:00.335Z,0.00
2023-02-19T04:28:00.325Z,0.00
2023-02-19T04:29:00.328Z,0.00
2023-02-19T04:30:00.393Z,0.00
2023-02-19T04:31:00.341Z,0.00
2023-02-19T04:32:00.342Z,0.00
2023-02-19T04:33:00.331Z,0.00
2023-02-19T04:34:00.308Z,0.00
2023-02-19T04:35:00.307Z,0.00
2023-02-19T04:36:00.302Z,0.00
2023-02-19T04:37:00.315Z,0.00
2023-02-19T04:38:00.309Z,0.00
2023-02-19T04:39:00.297Z,0.00
2023-02-19T04:40:00.298Z,0.00
2023-02-19T04:41:00.295Z,0.00
2023-02-19T04:42:00.301Z,0.00
2023-02-19T04:43:00.367Z,0.00
2023-02-19T04:44:00.282Z,0.00
2023-02-19T04:45:00.263Z,0.00
2023-02-19T04:46:00.304Z,0.00
2023-02-19T04:47:00.276Z,0.00
2023-02-19T04:48:00.288Z,0.00
2023-02-19T04:49:00.294Z,0.00
2023-02-19T04:50:00.253Z,0.00
2023-02-19T04:51:00.309Z,0.00
2023-02-19T04:52:00.257Z,0.00
2023-02-19T04:53:00.245Z,0.00
2023-02-19T04:54:00.256Z,0.00
2023-02-19T04:55:00.252Z,0.00
2023-02-19T04:56:00.259Z,0.00
2023-02-19T04:57:00.243Z,0.00
2023-02-19T04:58:00.241Z,0.00
2023-02-19T04:59:00.238Z,0.00
2023-02-19T05:00:00.223Z,0.00
2023-02-19T05:01:00.243Z,0.00
2023-02-19T05:02:00.214Z,0.00
2023-02-19T05:03:00.229Z,0.00
2023-02-19T05:04:00.215Z,0.00
2023-02-19T05:05:00.254Z,0.00
2023-02-19T05:06:00.215Z,0.00
2023-02-19T05:07:00.213Z,0.00
2023-02-19T05:08:00.208Z,0.00
2023-02-19T05:09:00.204Z,0.00
2023-02-19T05:10:00.205Z,0.00
2023-02-19T05:11:00.223Z,0.00
2023-02-19T05:12:00.202Z,0.00
2023-02-19T05:13:00.206Z,0.00
2023-02-19T05:14:00.202Z,0.00
2023-02-19T05:15:00.191Z,0.00
2023-02-19T05:16:00.285Z,0.00
2023-02-19T05:17:00.177Z,0.00
2023-02-19T05:18:00.192Z,0.00
2023-02-19T05:19:00.170Z,0.00
2023-02-19T05:20:00.197Z,0.00
2023-02-19T05:21:00.165Z,0.00
2023-02-19T05:22:00.166Z,0.00
2023-02-19T05:23:00.160Z,0.00
2023-02-19T05:24:00.159Z,0.00
2023-02-19T05:25:00.141Z,0.00
2023-02-19T05:26:00.147Z,0.00
2023-02-19T05:27:00.145Z,0.00
2023-02-19T05:28:00.164Z,0.00
2023-02-19T05:29:00.208Z,0.00
2023-02-19T05:30:00.282Z,0.00
2023-02-19T05:31:01.243Z,0.00
2023-02-19T05:32:01.150Z,0.00
2023-02-19T05:33:00.789Z,0.00
2023-02-19T05:34:00.779Z,0.00
2023-02-19T05:35:00.131Z,0.00
2023-02-19T05:36:01.249Z,0.00
2023-02-19T05:37:00.971Z,0.00
2023-02-19T05:38:00.160Z,0.00
2023-02-19T05:39:00.841Z,0.00
2023-02-19T05:40:00.153Z,0.00
2023-02-19T05:41:00.131Z,0.00
2023-02-19T05:42:00.133Z,0.00
2023-02-19T05:43:00.110Z,0.00
2023-02-19T05:44:00.251Z,0.00
2023-02-19T05:45:00.470Z,0.00
2023-02-19T05:48:44.503Z,0.00
2023-02-19T05:49:43.431Z,0.00
2023-02-19T05:50:44.002Z,0.00
2023-02-19T05:51:43.990Z,0.00
2023-02-19T05:52:43.814Z,0.00
2023-02-19T05:53:44.056Z,0.00
2023-02-19T05:54:43.596Z,0.00
2023-02-19T05:55:43.992Z,0.00
2023-02-19T05:56:49.006Z,4.00
2023-02-19T05:57:46.533Z,0.00
2023-02-19T05:58:43.068Z,4.00
2023-02-19T06:00:43.112Z,4.00
2023-02-19T06:01:43.154Z,8.00
2023-02-19T06:02:43.290Z,4.00
2023-02-19T06:03:43.109Z,8.00
2023-02-19T06:04:44.010Z,8.00
2023-02-19T06:05:43.460Z,8.00
2023-02-19T06:06:44.169Z,8.00
2023-02-19T06:07:46.536Z,8.00
2023-02-19T06:08:44.998Z,12.00
2023-02-19T06:09:44.226Z,12.00
2023-02-19T06:10:43.106Z,16.00
2023-02-19T06:16:29.092Z,32.00
2023-02-19T06:17:28.641Z,28.00
2023-02-19T06:18:28.792Z,36.00
2023-02-19T06:19:29.427Z,28.00
2023-02-19T06:20:29.391Z,36.00
2023-02-19T06:21:29.611Z,32.00
2023-02-19T06:22:28.624Z,40.00
2023-02-19T06:23:28.606Z,44.00
2023-02-19T06:24:29.708Z,48.00
2023-02-19T06:25:28.595Z,56.00
2023-02-19T06:26:28.622Z,68.00
2023-02-19T06:27:28.595Z,72.00
2023-02-19T06:28:30.117Z,80.00
2023-02-19T06:29:28.606Z,80.00
2023-02-19T06:30:28.631Z,88.00
2023-02-19T06:31:33.266Z,92.00
2023-02-19T06:32:28.762Z,96.00
2023-02-19T06:33:30.614Z,92.00
2023-02-19T06:34:28.583Z,100.00
2023-02-19T06:35:28.607Z,104.00
2023-02-19T06:41:07.671Z,116.00
2023-02-19T06:42:07.697Z,124.00
2023-02-19T06:43:07.674Z,132.00
2023-02-19T06:44:07.564Z,144.00
2023-02-19T06:45:07.926Z,156.00
2023-02-19T06:46:06.828Z,164.00
2023-02-19T06:47:07.512Z,172.00
2023-02-19T06:48:07.501Z,168.00
2023-02-19T06:49:06.733Z,164.00
2023-02-19T06:50:06.740Z,168.00
2023-02-19T06:51:06.730Z,176.00
2023-02-19T06:52:06.738Z,184.00
2023-02-19T06:53:08.507Z,192.00
2023-02-19T06:54:06.772Z,212.00
2023-02-19T06:55:06.793Z,232.00
2023-02-19T06:56:06.743Z,268.00
2023-02-19T06:57:06.737Z,288.00
2023-02-19T07:00:51.544Z,356.00
2023-02-19T07:01:58.930Z,428.00
2023-02-19T07:02:53.675Z,512.00
2023-02-19T07:03:54.435Z,552.00
2023-02-19T07:04:50.470Z,536.00
2023-02-19T07:05:51.177Z,512.00
2023-02-19T07:06:51.426Z,480.00
2023-02-19T07:07:50.365Z,460.00
2023-02-19T07:08:50.360Z,448.00
2023-02-19T07:09:50.368Z,460.00
2023-02-19T07:10:50.369Z,500.00
2023-02-19T07:11:51.967Z,532.00
2023-02-19T07:12:51.467Z,536.00
2023-02-19T07:13:50.355Z,532.00
2023-02-19T07:14:50.329Z,540.00
2023-02-19T07:17:38.553Z,592.00
2023-02-19T07:18:24.576Z,652.00
2023-02-19T07:19:24.975Z,720.00
2023-02-19T07:20:23.392Z,780.00
2023-02-19T07:21:23.390Z,836.00
2023-02-19T07:22:23.371Z,908.00
2023-02-19T07:23:23.373Z,1008.00
2023-02-19T07:24:23.424Z,1120.00
2023-02-19T07:25:23.992Z,1220.00
2023-02-19T07:26:23.378Z,1336.00
2023-02-19T07:27:23.369Z,1452.00
2023-02-19T07:28:23.999Z,1548.00
2023-02-19T07:29:23.381Z,1628.00
2023-02-19T07:30:23.401Z,1700.00
2023-02-19T07:31:23.444Z,1756.00
2023-02-19T07:32:23.362Z,1784.00
2023-02-19T07:33:23.343Z,1740.00
2023-02-19T07:34:23.360Z,1684.00
2023-02-19T07:35:23.365Z,1636.00
2023-02-19T07:36:23.348Z,1588.00
2023-02-19T07:37:23.343Z,1572.00
2023-02-19T07:38:23.364Z,1552.00
2023-02-19T07:39:23.336Z,1524.00
2023-02-19T07:40:23.336Z,1548.00
2023-02-19T07:41:23.414Z,1624.00
2023-02-19T07:42:23.340Z,1736.00
2023-02-19T07:43:23.322Z,1864.00
2023-02-19T07:44:23.323Z,1984.00
2023-02-19T07:45:23.403Z,2132.00
2023-02-19T07:46:23.341Z,2376.00
2023-02-19T07:47:23.315Z,2748.00
2023-02-19T07:48:23.338Z,3128.00
2023-02-19T07:49:23.314Z,3556.00
2023-02-19T07:50:23.315Z,4176.00
2023-02-19T07:51:23.330Z,4584.00
2023-02-19T07:53:57.120Z,4828.00
2023-02-19T07:58:37.640Z,5444.00
2023-02-19T07:59:03.400Z,5632.00
2023-02-19T08:00:02.573Z,5276.00
2023-02-19T08:01:02.683Z,5308.00
2023-02-19T08:02:02.579Z,6588.00
2023-02-19T08:03:03.610Z,8344.00
2023-02-19T08:04:03.455Z,10260.00
2023-02-19T08:05:02.724Z,10656.00
2023-02-19T08:06:03.362Z,11364.00
2023-02-19T08:07:03.271Z,12080.00
2023-02-19T08:08:02.551Z,12392.00
2023-02-19T08:09:02.565Z,11104.00
2023-02-19T08:10:02.561Z,10416.00
2023-02-19T08:11:02.541Z,11772.00
2023-02-19T08:12:02.567Z,12636.00
2023-02-19T08:13:02.574Z,12256.00
2023-02-19T08:15:36.550Z,12260.00
2023-02-19T08:16:42.973Z,13192.00
2023-02-19T08:19:34.750Z,15648.00
2023-02-19T08:20:08.240Z,16096.00
2023-02-19T08:21:09.113Z,18240.00
2023-02-19T08:23:59.333Z,23264.00
2023-02-19T08:24:41.954Z,25248.00
2023-02-19T08:25:40.802Z,25184.00
2023-02-19T08:33:15.605Z,23328.00
2023-02-19T08:34:14.433Z,22336.00
2023-02-19T08:35:14.898Z,17248.00
2023-02-19T08:36:14.612Z,14976.00
2023-02-19T08:37:14.894Z,16448.00
2023-02-19T08:38:14.402Z,19072.00
2023-02-19T08:39:14.423Z,23456.00
2023-02-19T08:40:17.425Z,19616.00
2023-02-19T08:41:14.694Z,27392.00
2023-02-19T08:45:42.313Z,32960.00
2023-02-19T08:46:20.658Z,32928.00
2023-02-19T08:49:41.685Z,30432.00
2023-02-19T08:50:41.209Z,9516.00
2023-02-19T08:51:41.386Z,15328.00
2023-02-19T08:52:41.412Z,7812.00
2023-02-19T08:53:41.336Z,24576.00
2023-02-19T08:54:40.756Z,17472.00
2023-02-19T08:55:41.280Z,3244.00
2023-02-19T08:56:41.082Z,2396.00
2023-02-19T08:57:41.776Z,4568.00
2023-02-19T08:58:41.310Z,9744.00
2023-02-19T08:59:40.816Z,17216.00
2023-02-19T09:00:41.820Z,7016.00
2023-02-19T09:01:40.995Z,10012.00
2023-02-19T09:02:40.814Z,7720.00
2023-02-19T09:03:40.803Z,24768.00
2023-02-19T09:04:41.439Z,23136.00
2023-02-19T09:05:40.822Z,16288.00
2023-02-19T09:06:41.785Z,22848.00
2023-02-19T09:07:40.888Z,13912.00
2023-02-19T09:08:40.785Z,9836.00
2023-02-19T09:09:40.802Z,29312.00
2023-02-19T09:10:40.763Z,19200.00
2023-02-19T09:11:40.776Z,21472.00
2023-02-19T09:12:40.800Z,16992.00
2023-02-19T09:13:40.822Z,6052.00
2023-02-19T09:14:40.768Z,4504.00
2023-02-19T09:15:40.770Z,18336.00
2023-02-19T09:16:40.769Z,13296.00
2023-02-19T09:17:40.813Z,5516.00
2023-02-19T09:18:40.775Z,6520.00
2023-02-19T09:19:40.766Z,16928.00
2023-02-19T09:20:48.889Z,27296.00
2023-02-19T09:21:40.774Z,40128.00
2023-02-19T09:22:40.814Z,29696.00
2023-02-19T09:23:40.771Z,26016.00
2023-02-19T09:24:40.771Z,20896.00
2023-02-19T09:25:40.788Z,4364.00
2023-02-19T09:26:40.786Z,3064.00
2023-02-19T09:27:40.783Z,5108.00
2023-02-19T09:28:40.794Z,6304.00
2023-02-19T09:29:40.785Z,5364.00
2023-02-19T09:30:40.816Z,7996.00
2023-02-19T09:31:40.865Z,5704.00
2023-02-19T09:32:40.777Z,3904.00
2023-02-19T09:33:40.782Z,7920.00
2023-02-19T09:34:40.803Z,9800.00
2023-02-19T09:35:40.807Z,14116.00
2023-02-19T09:36:40.799Z,34784.00
2023-02-19T09:37:40.784Z,5420.00
2023-02-19T09:38:40.796Z,30432.00
2023-02-19T09:39:40.790Z,8696.00
2023-02-19T09:40:40.802Z,6696.00
2023-02-19T09:41:40.805Z,42784.00
2023-02-19T09:42:40.790Z,12908.00
2023-02-19T09:43:40.787Z,29216.00
2023-02-19T09:44:40.797Z,6696.00
2023-02-19T09:45:40.795Z,36608.00
2023-02-19T09:46:40.783Z,39872.00
2023-02-19T09:47:40.791Z,5140.00
2023-02-19T09:48:40.794Z,5548.00
2023-02-19T09:49:40.809Z,7308.00
2023-02-19T09:50:40.805Z,33568.00
2023-02-19T09:51:40.821Z,35296.00
2023-02-19T09:52:40.792Z,12724.00
2023-02-19T09:53:40.785Z,23680.00
2023-02-19T09:54:40.795Z,11716.00
2023-02-19T09:55:40.816Z,7824.00
2023-02-19T09:56:40.822Z,19936.00
2023-02-19T09:57:40.810Z,29632.00
2023-02-19T09:58:40.802Z,5512.00
2023-02-19T09:59:40.795Z,7164.00
2023-02-19T10:00:40.821Z,26592.00
2023-02-19T10:01:40.816Z,27616.00
2023-02-19T10:02:40.813Z,34400.00
2023-02-19T10:03:40.820Z,21952.00
2023-02-19T10:04:40.808Z,10996.00
2023-02-19T10:05:40.792Z,15616.00
2023-02-19T10:06:40.825Z,36320.00
2023-02-19T10:07:40.801Z,3644.00
2023-02-19T10:08:40.801Z,7664.00
2023-02-19T10:09:40.807Z,28032.00
2023-02-19T10:10:40.811Z,17568.00
2023-02-19T10:11:40.806Z,5048.00
2023-02-19T10:12:40.810Z,45120.00
2023-02-19T10:13:40.814Z,10340.00
2023-02-19T10:14:40.811Z,7328.00
2023-02-19T10:15:40.897Z,7128.00
2023-02-19T10:16:40.823Z,16768.00
2023-02-19T10:17:40.824Z,44960.00
2023-02-19T10:18:40.837Z,41696.00
2023-02-19T10:19:40.831Z,22240.00
2023-02-19T10:20:40.823Z,6016.00
2023-02-19T10:21:40.829Z,3232.00
2023-02-19T10:22:40.841Z,4544.00
2023-02-19T10:23:40.833Z,5000.00
2023-02-19T10:24:40.858Z,4464.00
2023-02-19T10:25:40.841Z,5648.00
2023-02-19T10:26:40.842Z,31520.00
2023-02-19T10:27:40.837Z,6840.00
2023-02-19T10:28:40.842Z,4792.00
2023-02-19T10:29:40.861Z,7500.00
2023-02-19T10:30:40.868Z,33856.00
2023-02-19T10:31:40.898Z,25440.00
2023-02-19T10:32:40.870Z,14660.00
2023-02-19T10:33:40.852Z,5668.00
2023-02-19T10:34:40.866Z,9700.00
2023-02-19T10:35:40.871Z,29664.00
2023-02-19T10:36:40.847Z,44064.00
2023-02-19T10:37:40.846Z,45664.00
2023-02-19T10:38:40.866Z,6800.00
2023-02-19T10:39:40.856Z,4064.00
2023-02-19T10:40:40.851Z,38240.00
2023-02-19T10:41:43.781Z,53632.00
2023-02-19T10:42:40.846Z,51360.00
2023-02-19T10:43:40.873Z,7104.00
2023-02-19T10:44:40.864Z,35872.00
2023-02-19T10:45:40.885Z,35296.00
2023-02-19T10:46:40.921Z,4008.00
2023-02-19T10:47:40.863Z,4872.00
2023-02-19T10:48:40.858Z,7572.00
2023-02-19T10:49:40.891Z,4140.00
2023-02-19T10:50:40.859Z,2732.00
2023-02-19T10:51:40.883Z,3596.00
2023-02-19T10:52:40.865Z,6264.00
2023-02-19T10:53:40.887Z,35968.00
2023-02-19T10:54:40.905Z,36032.00
2023-02-19T10:55:40.874Z,5648.00
2023-02-19T10:56:40.888Z,14312.00
2023-02-19T10:57:40.897Z,34336.00
2023-02-19T10:58:40.889Z,17408.00
2023-02-19T10:59:40.906Z,3296.00
2023-02-19T11:00:40.960Z,4056.00
2023-02-19T11:01:40.937Z,4280.00
2023-02-19T11:02:41.839Z,12712.00
2023-02-19T11:03:40.904Z,12912.00
2023-02-19T11:04:40.915Z,5440.00
2023-02-19T11:05:40.932Z,6948.00
2023-02-19T11:06:40.909Z,7376.00
2023-02-19T11:07:40.918Z,5748.00
2023-02-19T11:08:40.891Z,8236.00
2023-02-19T11:09:40.925Z,4856.00
2023-02-19T11:10:40.906Z,4864.00
2023-02-19T11:11:40.895Z,12400.00
2023-02-19T11:12:40.903Z,12404.00
2023-02-19T11:13:40.952Z,6028.00
2023-02-19T11:14:40.909Z,11196.00
2023-02-19T11:15:40.915Z,8548.00
2023-02-19T11:16:40.926Z,12032.00
2023-02-19T11:17:40.918Z,4976.00
2023-02-19T11:18:40.902Z,3692.00
2023-02-19T11:19:40.909Z,3832.00
2023-02-19T11:20:40.909Z,3156.00
2023-02-19T11:21:40.926Z,4312.00
2023-02-19T11:22:40.918Z,6848.00
2023-02-19T11:23:40.907Z,25408.00
2023-02-19T11:24:40.908Z,4328.00
2023-02-19T11:25:40.919Z,3996.00
2023-02-19T11:26:40.927Z,13724.00
2023-02-19T11:27:40.921Z,24736.00
2023-02-19T11:28:40.917Z,52384.00
2023-02-19T11:29:40.922Z,20512.00
2023-02-19T11:30:41.028Z,49824.00
2023-02-19T11:31:41.035Z,7448.00
2023-02-19T11:32:40.907Z,48864.00
2023-02-19T11:33:40.934Z,48704.00
2023-02-19T11:34:40.914Z,48128.00
2023-02-19T11:35:40.926Z,47968.00
2023-02-19T11:36:40.928Z,47520.00
2023-02-19T11:37:40.915Z,39296.00
2023-02-19T11:38:48.949Z,6400.00
2023-02-19T11:39:49.997Z,5460.00
2023-02-19T11:40:40.946Z,4476.00
2023-02-19T11:41:40.973Z,2496.00
2023-02-19T11:42:40.927Z,2204.00
2023-02-19T11:43:40.927Z,3432.00
2023-02-19T11:44:40.929Z,4064.00
2023-02-19T11:45:40.936Z,4124.00
2023-02-19T11:46:41.048Z,21984.00
2023-02-19T11:47:40.958Z,11876.00
2023-02-19T11:48:40.934Z,4396.00
2023-02-19T11:49:40.943Z,5380.00
2023-02-19T11:52:13.678Z,4208.00
2023-02-19T11:53:12.996Z,2968.00
2023-02-19T11:54:12.985Z,2560.00
2023-02-19T11:55:13.016Z,3208.00
2023-02-19T11:56:13.004Z,5468.00
2023-02-19T11:57:13.027Z,2540.00
2023-02-19T11:58:13.001Z,5492.00
2023-02-19T11:59:15.089Z,2276.00
2023-02-19T12:00:13.007Z,2088.00
2023-02-19T12:01:13.409Z,1996.00
2023-02-19T12:02:13.083Z,4992.00
2023-02-19T12:03:13.030Z,4908.00
2023-02-19T12:04:13.000Z,4984.00
2023-02-19T12:05:13.167Z,1912.00
2023-02-19T12:06:13.413Z,1728.00
2023-02-19T12:07:13.152Z,1956.00
2023-02-19T12:08:12.994Z,2048.00
2023-02-19T12:09:12.996Z,1932.00
2023-02-19T12:10:13.118Z,2524.00
2023-02-19T12:11:12.997Z,2280.00
2023-02-19T12:12:13.020Z,2012.00
2023-02-19T12:13:13.028Z,2028.00
2023-02-19T12:14:12.994Z,1892.00
2023-02-19T12:15:13.037Z,1800.00
2023-02-19T12:16:13.032Z,1828.00
2023-02-19T12:17:13.001Z,1768.00
2023-02-19T12:18:13.020Z,1692.00
2023-02-19T12:19:13.007Z,1656.00
2023-02-19T12:20:13.196Z,3928.00
2023-02-19T12:21:13.301Z,3904.00
2023-02-19T12:22:13.318Z,1820.00
2023-02-19T12:23:12.986Z,1732.00
2023-02-19T12:24:13.003Z,3116.00
2023-02-19T12:25:12.992Z,1792.00
2023-02-19T12:26:13.273Z,1832.00
2023-02-19T12:27:13.066Z,2448.00
2023-02-19T12:28:12.993Z,3040.00
2023-02-19T12:29:13.004Z,1980.00
2023-02-19T12:30:13.132Z,2532.00
2023-02-19T12:31:15.160Z,1980.00
2023-02-19T12:32:13.101Z,1816.00
2023-02-19T12:33:12.994Z,2156.00
2023-02-19T12:34:12.970Z,2292.00
2023-02-19T12:35:12.994Z,2028.00
2023-02-19T12:36:13.246Z,1912.00
2023-02-19T12:37:12.980Z,2660.00
2023-02-19T12:38:12.966Z,2192.00
2023-02-19T12:39:12.964Z,1864.00
2023-02-19T12:40:12.989Z,1660.00
2023-02-19T12:41:12.962Z,1512.00
2023-02-19T12:42:12.958Z,1536.00
2023-02-19T12:43:12.964Z,1972.00
2023-02-19T12:44:12.964Z,1696.00
2023-02-19T12:45:12.966Z,1828.00
2023-02-19T12:46:13.484Z,1600.00
2023-02-19T12:47:12.962Z,1660.00
2023-02-19T12:48:12.960Z,2096.00
2023-02-19T12:49:12.945Z,2076.00
2023-02-19T12:50:12.967Z,2452.00
2023-02-19T12:51:12.959Z,2660.00
2023-02-19T12:52:13.612Z,2148.00
2023-02-19T12:53:12.947Z,1996.00
2023-02-19T12:54:12.951Z,1780.00
2023-02-19T12:55:12.959Z,1596.00
2023-02-19T12:56:13.199Z,3116.00
2023-02-19T12:57:12.956Z,3040.00
2023-02-19T12:58:12.951Z,1984.00
2023-02-19T12:59:12.952Z,2776.00
2023-02-19T13:00:12.934Z,3712.00
2023-02-19T13:01:12.989Z,3228.00
2023-02-19T13:02:13.021Z,3616.00
2023-02-19T13:03:13.112Z,4024.00
2023-02-19T13:04:12.941Z,3816.00
2023-02-19T13:05:12.938Z,4236.00
2023-02-19T13:06:13.885Z,4080.00
2023-02-19T13:07:12.933Z,4484.00
2023-02-19T13:08:12.920Z,4136.00
2023-02-19T13:09:12.952Z,3812.00
2023-02-19T13:10:12.942Z,3784.00
2023-02-19T13:11:13.313Z,3664.00
2023-02-19T13:12:12.918Z,3264.00
2023-02-19T13:13:12.928Z,1824.00
2023-02-19T13:14:12.986Z,2864.00
2023-02-19T13:15:12.914Z,3220.00
2023-02-19T13:16:13.292Z,3580.00
2023-02-19T13:17:12.915Z,4020.00
2023-02-19T13:18:12.933Z,4024.00
2023-02-19T13:19:12.924Z,4048.00
2023-02-19T13:20:12.917Z,4216.00